KSAN Airport (San Diego Intl) Information

FAA: SAN - ICAO: KSAN

KSAN Airport Location

State California
County San Diego
City San Diego
KSAN Airport is 2 miles west of San Diego, CA.
Latitude 32-44-00.8000N
Longitude 117-11-22.8000W
Elevation 16ft

KSAN Airport METARs

METAR KSAN 181351Z 00000KT 10SM FEW011 SCT020 BKN070 13/13 A3007 RMK AO2 SLP182 T01330128
Altimeter 30.07"
Temperature 13.3°C (55.9°F)
Wind 0° at 0KT
Clouds few at 1,100ft scattered at 2,000ft broken at 7,000ft
Visibility 10.0mi
Time observed: 2022-01-18T13:51:00Z

KSAN Airport Details

Status Operational
Activation April 1940
Ownership Public
Usage Public
Chart LOS ANGELES
ATC on-site Yes
Beacon schedule sunset-sunrise
Beacon color clear green

KSAN Airport Contacts

Owner SAN DIEGO CNTY REG ARPT AUTHORITY
Owner address 3225 N HARBOR DRIVE, SAN DIEGO, CA 92101-1022
Owner phone (619) 400-2400
Manager KEN DUMONT, FACILITIES ENGINEER II
Manager address 5775 MOREHOUSE DR, SAN DIEGO, CA 92121
Manager phone 858-658-2625

KSAN Airport (San Diego Intl) Radio Frequencies

KSAN (Airport) Radio Frequencies

UNICOM 122.95
Common traffic advisory frequency (CTAF) N/A